Time;durP1;ratioP1;P1;durP2;ratioP2;P2;SDS_P1;SDS_P2;PMS_P1;PMS_P2;Temp;Humidity;BMP_temperature;BMP_pressure;BME280_temperature;BME280_humidity;BME280_pressure;Samples;Min_cycle;Max_cycle;Signal;HPM_P1;HPM_P2
2022/03/06 00:01:05;;;;;;;9.40;5.10;;;;;;;2.53;71.31;101511.91;5083441;28;20526;-65
2022/03/06 00:03:31;;;;;;;12.88;4.70;;;;;;;2.50;71.28;101499.84;5083116;28;20028;-66
2022/03/06 00:05:56;;;;;;;10.15;4.43;;;;;;;2.53;71.17;101507.66;5083598;28;20021;-65
2022/03/06 00:08:22;;;;;;;13.63;5.22;;;;;;;2.56;71.26;101506.91;5083460;28;20028;-65
2022/03/06 00:10:48;;;;;;;15.25;5.13;;;;;;;2.55;71.27;101500.03;5083755;28;20274;-65
2022/03/06 00:13:14;;;;;;;9.52;4.70;;;;;;;2.57;71.18;101499.28;5085433;28;20020;-65
2022/03/06 00:15:41;;;;;;;14.82;5.50;;;;;;;2.59;71.30;101501.91;5087672;28;20021;-65
2022/03/06 00:18:06;;;;;;;16.25;5.55;;;;;;;2.61;71.15;101502.88;5086015;28;20035;-66
2022/03/06 00:20:32;;;;;;;11.93;5.30;;;;;;;2.57;71.20;101496.72;5087718;28;20048;-65
2022/03/06 00:22:57;;;;;;;14.32;4.93;;;;;;;2.59;71.33;101494.22;5085866;28;20126;-65
2022/03/06 00:25:22;;;;;;;11.68;5.07;;;;;;;2.60;71.29;101496.84;5087296;28;20020;-65
2022/03/06 00:27:48;;;;;;;9.20;4.60;;;;;;;2.58;71.49;101493.38;5087351;28;20032;-65
2022/03/06 00:30:13;;;;;;;15.25;5.03;;;;;;;2.58;71.44;101488.25;5085868;28;20028;-65
2022/03/06 00:32:39;;;;;;;9.20;5.35;;;;;;;2.60;71.33;101483.19;5085800;28;20031;-65
2022/03/06 00:35:05;;;;;;;13.43;5.53;;;;;;;2.63;71.12;101487.53;5087238;28;20107;-65
2022/03/06 00:37:30;;;;;;;12.65;5.30;;;;;;;2.60;71.26;101483.19;5085530;28;20030;-65
2022/03/06 00:39:56;;;;;;;12.68;5.50;;;;;;;2.62;71.44;101486.66;5087178;28;20050;-65
2022/03/06 00:42:21;;;;;;;15.43;5.93;;;;;;;2.62;71.35;101478.13;5086922;28;20060;-64
2022/03/06 00:44:47;;;;;;;8.68;5.20;;;;;;;2.61;71.13;101472.09;5085404;28;20124;-65
2022/03/06 00:47:12;;;;;;;11.48;4.70;;;;;;;2.63;71.45;101479.84;5086460;28;20025;-65
2022/03/06 00:49:38;;;;;;;11.07;5.53;;;;;;;2.66;71.24;101474.84;5086711;28;20017;-65
2022/03/06 00:52:03;;;;;;;11.30;5.20;;;;;;;2.62;71.29;101476.41;5086840;28;20645;-65
2022/03/06 00:54:29;;;;;;;10.63;6.00;;;;;;;2.62;71.35;101478.97;5086875;28;20028;-65
2022/03/06 00:56:54;;;;;;;14.57;5.43;;;;;;;2.61;71.50;101472.09;5086665;28;20024;-65
2022/03/06 00:59:19;;;;;;;17.33;5.22;;;;;;;2.59;71.75;101483.97;5086633;28;20029;-65
2022/03/06 01:01:45;;;;;;;9.65;5.75;;;;;;;2.59;71.89;101482.28;5086502;28;20035;-65
2022/03/06 01:04:10;;;;;;;13.23;5.80;;;;;;;2.58;71.99;101483.13;5086279;28;20039;-65
2022/03/06 01:06:36;;;;;;;14.20;5.85;;;;;;;2.59;71.48;101481.41;5086524;28;20025;-67
2022/03/06 01:09:02;;;;;;;12.45;5.72;;;;;;;2.54;72.33;101475.22;5086331;28;20025;-65
2022/03/06 01:11:27;;;;;;;13.82;5.30;;;;;;;2.55;72.42;101482.09;5086261;28;20120;-65
2022/03/06 01:13:53;;;;;;;13.70;5.05;;;;;;;2.55;72.54;101482.09;5086287;28;20024;-65
2022/03/06 01:16:18;;;;;;;13.10;5.90;;;;;;;2.57;72.24;101477.91;5086382;28;20119;-65
2022/03/06 01:18:43;;;;;;;15.98;5.88;;;;;;;2.55;72.43;101471.84;5085923;28;20052;-65
2022/03/06 01:21:09;;;;;;;11.15;5.65;;;;;;;2.52;72.71;101472.59;5084871;28;20538;-65
2022/03/06 01:23:37;;;;;;;11.70;6.40;;;;;;;2.55;72.72;101477.84;5085723;28;20020;-65
2022/03/06 01:26:03;;;;;;;15.50;5.22;;;;;;;2.54;72.73;101480.34;5085690;28;20035;-65
2022/03/06 01:28:29;;;;;;;13.75;6.13;;;;;;;2.58;72.52;101479.66;5085970;28;20031;-65
2022/03/06 01:30:55;;;;;;;13.30;5.90;;;;;;;2.53;72.71;101471.78;5085871;28;20024;-65
2022/03/06 01:33:20;;;;;;;15.57;5.78;;;;;;;2.54;72.85;101475.22;5084343;28;20016;-65
2022/03/06 01:35:46;;;;;;;15.55;7.90;;;;;;;2.50;73.07;101469.09;5086081;28;20021;-65
2022/03/06 01:38:11;;;;;;;14.82;5.82;;;;;;;2.53;73.19;101468.34;5085797;28;20209;-65
2022/03/06 01:40:36;;;;;;;11.23;5.65;;;;;;;2.52;73.17;101471.72;5086039;28;20104;-65
2022/03/06 01:43:02;;;;;;;19.48;6.47;;;;;;;2.50;73.47;101473.31;5085341;28;20079;-65
2022/03/06 01:45:28;;;;;;;14.07;6.85;;;;;;;2.47;73.57;101463.84;5085668;28;20142;-65
2022/03/06 01:47:55;;;;;;;17.98;6.50;;;;;;;2.49;73.33;101467.34;5085340;28;20036;-65
2022/03/06 01:50:20;;;;;;;17.23;5.93;;;;;;;2.48;73.36;101465.56;5085708;28;20060;-65
2022/03/06 01:52:48;;;;;;;12.30;7.05;;;;;;;2.45;73.59;101463.78;5085597;28;20028;-65
2022/03/06 01:55:14;;;;;;;12.90;6.45;;;;;;;2.42;73.78;101466.22;5085478;28;20017;-65
2022/03/06 01:57:41;;;;;;;13.95;6.90;;;;;;;2.44;74.00;101463.72;5085395;28;20028;-65
2022/03/06 02:00:12;;;;;;;25.65;7.75;;;;;;;2.42;73.86;101462.75;5085667;28;20357;-65
2022/03/06 02:02:37;;;;;;;12.27;6.70;;;;;;;2.39;74.19;101460.94;5085353;28;20024;-65
2022/03/06 02:05:03;;;;;;;16.10;7.88;;;;;;;2.37;74.55;101446.28;5085119;28;20025;-65
2022/03/06 02:07:29;;;;;;;23.10;7.80;;;;;;;2.35;74.56;101448.78;5085383;28;20052;-65
2022/03/06 02:09:56;;;;;;;17.20;8.20;;;;;;;2.34;74.81;101447.94;5085251;28;20037;-65
2022/03/06 02:12:24;;;;;;;15.45;7.63;;;;;;;2.33;74.91;101445.31;5085239;28;20024;-65
2022/03/06 02:15:00;;;;;;;14.88;7.75;;;;;;;2.26;75.17;101433.03;5085217;28;20032;-65
2022/03/06 02:17:27;;;;;;;24.35;8.98;;;;;;;2.32;75.00;101438.41;5083628;28;20558;-63
2022/03/06 02:20:06;;;;;;;21.48;7.93;;;;;;;2.26;75.14;101431.34;5085078;28;20060;-62
2022/03/06 02:22:37;;;;;;;14.63;9.82;;;;;;;2.21;75.60;101436.28;5085032;28;20029;-62
2022/03/06 02:25:06;;;;;;;21.27;8.40;;;;;;;2.20;75.36;101436.22;5085121;28;20032;-62
2022/03/06 02:27:32;;;;;;;16.67;8.30;;;;;;;2.17;74.99;101430.97;5084849;28;20089;-64
2022/03/06 02:29:57;;;;;;;16.48;7.70;;;;;;;2.16;75.19;101435.22;5085050;28;20024;-63
2022/03/06 02:32:23;;;;;;;18.42;8.07;;;;;;;2.15;75.30;101433.47;5084730;28;20028;-66
2022/03/06 02:34:51;;;;;;;15.77;7.95;;;;;;;2.14;75.35;101423.16;5084514;28;20095;-65
2022/03/06 02:37:19;;;;;;;21.30;10.02;;;;;;;2.07;75.44;101417.78;5084492;28;20049;-65
2022/03/06 02:39:46;;;;;;;14.95;7.80;;;;;;;2.07;75.70;101422.00;5084681;28;20012;-64
2022/03/06 02:42:33;;;;;;;20.35;8.15;;;;;;;2.02;75.81;101418.38;5084672;28;20036;-64
2022/03/06 02:45:07;;;;;;;18.27;8.10;;;;;;;1.98;75.89;101432.75;5084353;28;20064;-64
2022/03/06 02:47:32;;;;;;;20.00;9.38;;;;;;;2.00;75.62;101427.69;5084543;28;20115;-63
2022/03/06 02:49:58;;;;;;;25.55;10.57;;;;;;;1.98;75.46;101428.47;5084215;28;20094;-62
2022/03/06 02:52:23;;;;;;;23.92;10.48;;;;;;;1.95;75.69;101425.78;5084337;28;20088;-65
2022/03/06 02:54:48;;;;;;;21.10;9.93;;;;;;;1.94;75.54;101425.72;5084253;28;20048;-64
2022/03/06 02:57:14;;;;;;;30.02;11.43;;;;;;;1.89;75.88;101428.09;5084184;28;20052;-63
2022/03/06 02:59:40;;;;;;;19.63;10.27;;;;;;;1.83;75.86;101418.47;5084286;28;20021;-63
2022/03/06 03:02:06;;;;;;;27.13;10.77;;;;;;;1.82;76.28;101423.50;5083981;28;20375;-63
2022/03/06 03:04:33;;;;;;;25.98;9.98;;;;;;;1.77;76.46;101427.53;5083634;28;20107;-63
2022/03/06 03:06:58;;;;;;;23.23;11.18;;;;;;;1.75;76.71;101432.59;5083959;28;20511;-63
2022/03/06 03:09:25;;;;;;;24.75;11.10;;;;;;;1.79;76.24;101423.38;5083920;28;20031;-63
2022/03/06 03:11:51;;;;;;;23.83;10.10;;;;;;;1.75;77.12;101430.03;5083937;28;20036;-63
2022/03/06 03:14:17;;;;;;;27.83;12.27;;;;;;;1.72;77.61;101430.78;5083745;28;20024;-63
2022/03/06 03:16:43;;;;;;;24.90;11.55;;;;;;;1.73;77.85;101429.09;5082487;28;20023;-63
2022/03/06 03:19:09;;;;;;;28.05;11.55;;;;;;;1.71;77.96;101428.16;5082050;28;20484;-63
2022/03/06 03:21:34;;;;;;;29.50;12.07;;;;;;;1.70;77.71;101429.84;5083653;28;20029;-63
2022/03/06 03:23:59;;;;;;;24.80;11.77;;;;;;;1.74;77.68;101425.75;5083572;28;20029;-63
2022/03/06 03:26:25;;;;;;;27.23;11.65;;;;;;;1.75;78.24;101434.28;5083779;28;20035;-63
2022/03/06 03:28:51;;;;;;;28.13;11.27;;;;;;;1.72;78.74;101435.03;5083570;28;20036;-63
2022/03/06 03:31:17;;;;;;;32.50;12.75;;;;;;;1.71;78.47;101434.13;5083449;28;20055;-62
2022/03/06 03:33:42;;;;;;;27.48;11.10;;;;;;;1.63;78.62;101432.06;5083349;28;20082;-63
2022/03/06 03:36:07;;;;;;;33.50;11.43;;;;;;;1.59;78.71;101428.47;5083660;28;20024;-62
2022/03/06 03:38:33;;;;;;;39.05;13.25;;;;;;;1.56;78.58;101428.34;5083417;28;20017;-63
2022/03/06 03:40:58;;;;;;;32.75;12.75;;;;;;;1.52;78.90;101442.66;5083539;28;20048;-62
2022/03/06 03:43:24;;;;;;;39.88;13.02;;;;;;;1.48;78.95;101438.22;5083251;28;20068;-63
2022/03/06 03:45:49;;;;;;;30.55;13.20;;;;;;;1.43;78.74;101435.47;5083378;28;20049;-63
2022/03/06 03:48:15;;;;;;;32.22;12.32;;;;;;;1.44;78.89;101442.31;5082552;28;20032;-62
2022/03/06 03:50:40;;;;;;;39.72;13.55;;;;;;;1.36;79.68;101441.09;5083345;28;20434;-63
2022/03/06 03:53:06;;;;;;;37.67;14.40;;;;;;;1.38;79.19;101447.16;5083408;28;20054;-63
2022/03/06 03:55:31;;;;;;;37.97;13.35;;;;;;;1.32;79.14;101447.75;5083377;28;20021;-63
2022/03/06 03:57:57;;;;;;;43.08;14.75;;;;;;;1.29;79.44;101454.41;5082859;28;20251;-62
2022/03/06 04:00:22;;;;;;;42.15;14.30;;;;;;;1.31;78.74;101455.38;5083327;28;20048;-63
2022/03/06 04:02:47;;;;;;;50.47;14.95;;;;;;;1.29;78.12;101447.63;5083237;28;20016;-62
2022/03/06 04:05:13;;;;;;;49.95;17.83;;;;;;;1.20;77.72;101436.94;5082911;28;20122;-63
2022/03/06 04:07:38;;;;;;;48.83;15.80;;;;;;;1.23;77.27;101450.75;5083199;28;20020;-63
2022/03/06 04:10:04;;;;;;;39.95;16.25;;;;;;;1.20;77.40;101448.06;5083213;28;20024;-62
2022/03/06 04:12:29;;;;;;;47.33;16.52;;;;;;;1.18;77.15;101452.22;5081755;28;20500;-63
2022/03/06 04:14:54;;;;;;;48.03;16.52;;;;;;;1.14;77.16;101449.44;5083269;28;20159;-63
2022/03/06 04:17:20;;;;;;;43.22;18.50;;;;;;;1.11;77.06;101450.19;5083225;28;20490;-64
2022/03/06 04:19:45;;;;;;;58.75;17.17;;;;;;;1.07;76.84;101454.25;5082999;28;20055;-63
2022/03/06 04:22:10;;;;;;;53.85;16.80;;;;;;;1.07;76.78;101459.38;5083101;28;20028;-63
2022/03/06 04:24:36;;;;;;;52.83;17.15;;;;;;;1.06;76.78;101456.75;5082897;28;20025;-63
2022/03/06 04:27:01;;;;;;;62.97;17.80;;;;;;;0.99;77.25;101456.47;5083014;28;20025;-63
2022/03/06 04:29:26;;;;;;;52.70;18.33;;;;;;;1.05;77.57;101465.22;5081658;28;20449;-63
2022/03/06 04:31:52;;;;;;;50.03;15.38;;;;;;;1.09;78.03;101452.66;5083041;28;20024;-63
2022/03/06 04:34:17;;;;;;;56.28;19.05;;;;;;;1.12;77.97;101444.25;5081407;28;20037;-63
2022/03/06 04:36:43;;;;;;;62.25;20.45;;;;;;;1.14;77.94;101447.75;5083004;28;20028;-63
2022/03/06 04:39:08;;;;;;;56.00;20.25;;;;;;;1.17;77.75;101454.69;5082852;28;20063;-63
2022/03/06 04:41:34;;;;;;;53.95;19.88;;;;;;;1.17;77.80;101454.69;5082857;28;20484;-63
2022/03/06 04:44:00;;;;;;;51.28;20.05;;;;;;;1.10;77.93;101464.63;5082722;28;20052;-63
2022/03/06 04:46:25;;;;;;;53.13;19.17;;;;;;;1.13;77.71;101463.03;5083027;28;20461;-63
2022/03/06 04:48:51;;;;;;;57.55;20.60;;;;;;;1.09;77.78;101459.44;5082756;28;20020;-63
2022/03/06 04:51:16;;;;;;;60.60;21.42;;;;;;;1.04;77.86;101445.59;5082851;28;20090;-63
2022/03/06 04:53:42;;;;;;;51.97;18.92;;;;;;;1.10;77.76;101461.22;5082733;28;20558;-63
2022/03/06 04:56:09;;;;;;;56.30;20.08;;;;;;;1.14;77.89;101452.88;5082960;28;20024;-63
2022/03/06 04:58:34;;;;;;;50.47;17.27;;;;;;;1.17;78.32;101454.69;5083588;28;20025;-63
2022/03/06 05:01:00;;;;;;;50.38;17.83;;;;;;;1.21;78.21;101460.06;5086415;28;20025;-63
2022/03/06 05:03:25;;;;;;;40.60;18.33;;;;;;;1.15;78.21;101446.09;5086183;28;20159;-63
2022/03/06 05:05:51;;;;;;;53.60;19.33;;;;;;;1.22;78.05;101459.25;5086398;28;20504;-62
2022/03/06 05:08:18;;;;;;;63.10;17.38;;;;;;;1.10;78.11;101449.28;5086331;28;20036;-63
2022/03/06 05:10:43;;;;;;;58.47;18.40;;;;;;;1.20;78.08;101454.84;5086325;28;20083;-62
2022/03/06 05:13:09;;;;;;;53.80;16.88;;;;;;;1.19;78.14;101456.53;5086054;28;20020;-62
2022/03/06 05:15:34;;;;;;;56.72;19.92;;;;;;;1.21;78.26;101449.81;5086358;28;20031;-62
2022/03/06 05:18:01;;;;;;;62.35;20.92;;;;;;;1.20;78.19;101455.72;5085799;28;20032;-62
2022/03/06 05:20:27;;;;;;;60.22;20.67;;;;;;;1.16;78.29;101452.94;5086281;28;20028;-62
2022/03/06 05:22:52;;;;;;;59.45;18.85;;;;;;;1.09;78.33;101464.56;5085972;28;20059;-62
2022/03/06 05:25:18;;;;;;;58.35;19.48;;;;;;;1.04;78.47;101456.69;5086094;28;20344;-63
2022/03/06 05:27:43;;;;;;;56.80;19.60;;;;;;;0.91;78.52;101450.09;5085961;28;20048;-63
2022/03/06 05:30:10;;;;;;;54.80;21.55;;;;;;;0.95;78.84;101464.81;5086153;28;20040;-63
2022/03/06 05:32:36;;;;;;;53.85;17.63;;;;;;;0.94;79.06;101464.72;5085729;28;20024;-62
2022/03/06 05:35:01;;;;;;;60.10;19.48;;;;;;;0.96;79.29;101475.88;5085610;28;20039;-62
2022/03/06 05:37:27;;;;;;;55.90;19.48;;;;;;;0.87;79.45;101458.44;5085976;28;20021;-62
2022/03/06 05:39:52;;;;;;;64.72;20.02;;;;;;;0.96;79.47;101470.75;5085894;28;20111;-63
2022/03/06 05:42:19;;;;;;;56.85;18.10;;;;;;;0.93;79.72;101465.50;5085510;28;20020;-62
2022/03/06 05:44:45;;;;;;;51.97;18.33;;;;;;;0.93;79.62;101471.50;5085567;28;20044;-63
2022/03/06 05:47:10;;;;;;;51.17;18.40;;;;;;;0.90;79.67;101465.34;5085634;28;20023;-63
2022/03/06 05:49:36;;;;;;;59.47;17.70;;;;;;;0.88;79.76;101472.09;5085409;28;20092;-62
2022/03/06 05:52:02;;;;;;;86.75;17.92;;;;;;;0.83;79.84;101464.22;5085772;28;20020;-63
2022/03/06 05:54:28;;;;;;;461.20;44.22;;;;;;;0.78;79.98;101469.09;5085784;28;20016;-62
2022/03/06 05:56:54;;;;;;;396.92;42.35;;;;;;;0.70;80.07;101467.84;5085283;28;20431;-63
2022/03/06 05:59:19;;;;;;;339.00;34.88;;;;;;;0.59;80.14;101465.59;5085474;28;20020;-62
2022/03/06 06:01:45;;;;;;;331.23;37.38;;;;;;;0.49;80.28;101474.53;5085525;28;20012;-62
2022/03/06 06:04:12;;;;;;;328.77;34.58;;;;;;;0.43;80.41;101483.53;5084919;28;20032;-62
2022/03/06 06:06:38;;;;;;;443.83;43.85;;;;;;;0.34;80.53;101473.72;5085333;28;20127;-64
2022/03/06 06:09:03;;;;;;;389.02;36.22;;;;;;;0.30;80.76;101479.47;5085072;28;20016;-63
2022/03/06 06:11:28;;;;;;;241.40;21.45;;;;;;;0.24;80.81;101470.69;5066635;28;20044;-63
2022/03/06 06:13:54;;;;;;;441.48;51.58;;;;;;;0.22;80.88;101481.66;5084941;28;20440;-62
2022/03/06 06:16:19;;;;;;;462.15;46.92;;;;;;;0.22;81.00;101481.66;5085406;28;20259;-63
2022/03/06 06:18:45;;;;;;;481.48;51.70;;;;;;;0.20;81.10;101485.78;5084888;28;20032;-62
2022/03/06 06:21:11;;;;;;;501.67;54.55;;;;;;;0.12;81.19;101480.28;5084997;28;20028;-63
2022/03/06 06:23:36;;;;;;;469.33;45.50;;;;;;;0.18;81.08;101488.25;5084949;28;20056;-63
2022/03/06 06:26:02;;;;;;;553.80;58.08;;;;;;;0.22;81.34;101495.28;5084653;28;20032;-63
2022/03/06 06:28:27;;;;;;;294.73;36.55;;;;;;;0.22;81.28;101490.16;5085030;28;20332;-65
2022/03/06 06:30:53;;;;;;;308.58;31.80;;;;;;;0.23;81.45;101497.06;5084958;28;20031;-63
2022/03/06 06:33:18;;;;;;;504.23;49.35;;;;;;;0.31;81.29;101505.09;5084528;28;20021;-62
2022/03/06 06:35:43;;;;;;;541.03;54.33;;;;;;;0.33;81.32;101505.19;5084791;28;20012;-62
2022/03/06 06:38:09;;;;;;;529.00;51.85;;;;;;;0.39;81.41;101500.38;5084782;28;20021;-62
2022/03/06 06:40:34;;;;;;;317.48;40.80;;;;;;;0.43;81.30;101502.28;5084883;28;20025;-62
2022/03/06 06:43:00;;;;;;;272.35;31.58;;;;;;;0.45;81.23;101510.91;5084237;28;20064;-62
2022/03/06 06:45:25;;;;;;;406.95;51.92;;;;;;;0.48;81.16;101505.06;5084632;28;20028;-62
2022/03/06 06:47:50;;;;;;;631.38;59.40;;;;;;;0.53;81.24;101506.19;5084354;28;20020;-62
2022/03/06 06:50:16;;;;;;;333.30;37.72;;;;;;;0.55;81.16;101512.28;5082933;28;20039;-62
2022/03/06 06:52:41;;;;;;;225.32;28.27;;;;;;;0.60;81.17;101512.50;5084286;28;20031;-62
2022/03/06 06:55:08;;;;;;;457.50;41.03;;;;;;;0.70;81.15;101511.28;5084546;28;20055;-62
2022/03/06 06:57:34;;;;;;;524.10;65.35;;;;;;;0.75;81.17;101522.63;5083886;28;20020;-62
2022/03/06 06:59:59;;;;;;;289.40;32.17;;;;;;;0.81;80.87;101524.59;5084181;28;20092;-63
2022/03/06 07:02:25;;;;;;;374.77;43.58;;;;;;;0.71;80.88;101521.59;5083941;28;20028;-62
2022/03/06 07:04:51;;;;;;;354.80;37.53;;;;;;;0.62;80.91;101523.69;5083744;28;20046;-62
2022/03/06 07:07:16;;;;;;;376.30;40.55;;;;;;;0.64;80.90;101523.75;5084367;28;20024;-62
2022/03/06 07:09:42;;;;;;;384.20;41.75;;;;;;;0.68;81.14;101528.22;5084089;28;20044;-63
2022/03/06 07:12:08;;;;;;;158.13;23.02;;;;;;;0.73;81.07;101530.22;5083914;28;20032;-63
2022/03/06 07:14:33;;;;;;;135.70;14.57;;;;;;;0.78;81.10;101529.56;5082933;28;20016;-64
2022/03/06 07:16:59;;;;;;;401.83;47.60;;;;;;;0.71;80.66;101531.81;5082668;28;20055;-63
2022/03/06 07:19:24;;;;;;;277.10;30.38;;;;;;;0.69;80.88;101533.41;5083227;28;20050;-63
2022/03/06 07:21:49;;;;;;;505.15;53.40;;;;;;;0.68;81.03;101526.56;5081385;28;20084;-63
2022/03/06 07:24:15;;;;;;;487.15;47.22;;;;;;;0.64;80.99;101537.41;5083252;28;20032;-63
2022/03/06 07:26:40;;;;;;;376.20;44.83;;;;;;;0.49;80.99;101530.75;5083499;28;20134;-64
2022/03/06 07:29:07;;;;;;;275.70;32.00;;;;;;;0.59;81.16;101543.97;5083423;28;20412;-64
2022/03/06 07:31:32;;;;;;;240.93;25.00;;;;;;;0.64;81.14;101547.63;5083544;28;20029;-64
2022/03/06 07:33:58;;;;;;;464.13;44.63;;;;;;;0.64;81.07;101557.00;5082961;28;20024;-64
2022/03/06 07:36:23;;;;;;;186.30;22.92;;;;;;;0.70;81.19;101564.97;5083576;28;20416;-64
2022/03/06 07:38:48;;;;;;;310.35;27.38;;;;;;;0.69;80.83;101569.19;5083147;28;20028;-64
2022/03/06 07:41:14;;;;;;;103.10;15.48;;;;;;;0.70;81.18;101564.97;5083293;28;20376;-64
2022/03/06 07:43:39;;;;;;;183.07;18.70;;;;;;;0.84;81.45;101563.09;5082877;28;20048;-63
2022/03/06 07:46:05;;;;;;;323.67;39.10;;;;;;;0.95;81.19;101569.66;5083345;28;20053;-65
2022/03/06 07:48:30;;;;;;;265.85;31.42;;;;;;;0.93;81.16;101567.78;5082808;28;20471;-63
2022/03/06 07:50:56;;;;;;;78.57;14.07;;;;;;;0.95;81.25;101568.75;5083148;28;20029;-63
2022/03/06 07:53:21;;;;;;;162.63;17.67;;;;;;;1.00;81.05;101585.22;5083113;28;20107;-63
2022/03/06 07:55:46;;;;;;;121.57;16.58;;;;;;;0.92;80.98;101582.28;5083023;28;20091;-63
2022/03/06 07:58:12;;;;;;;174.10;19.98;;;;;;;0.87;80.87;101591.38;5083265;28;20024;-63
2022/03/06 08:00:37;;;;;;;127.28;14.27;;;;;;;0.78;80.82;101588.38;5083061;28;20020;-63
2022/03/06 08:03:03;;;;;;;60.38;9.63;;;;;;;0.70;80.74;101593.94;5081600;28;20028;-63
2022/03/06 08:05:28;;;;;;;119.13;14.15;;;;;;;0.70;80.78;101598.19;5082780;28;20020;-63
2022/03/06 08:07:53;;;;;;;92.40;11.68;;;;;;;0.64;80.75;101595.34;5082937;28;20028;-63
2022/03/06 08:10:19;;;;;;;88.13;10.65;;;;;;;0.64;80.73;101590.22;5082880;28;20074;-63
2022/03/06 08:12:47;;;;;;;31.77;7.13;;;;;;;0.61;81.03;101591.81;5082648;28;20029;-64
2022/03/06 08:15:12;;;;;;;25.25;7.65;;;;;;;0.86;81.49;101602.44;5082754;28;20040;-63
2022/03/06 08:17:38;;;;;;;39.97;11.85;;;;;;;1.11;82.44;101578.06;5083669;28;20017;-63
2022/03/06 08:20:04;;;;;;;51.25;8.80;;;;;;;1.47;81.97;101587.47;5083109;28;20024;-63
2022/03/06 08:22:30;;;;;;;19.80;7.15;;;;;;;1.47;80.42;101572.97;5083598;28;20311;-63
2022/03/06 08:24:56;;;;;;;15.88;6.95;;;;;;;1.67;80.69;101583.31;5083495;28;20029;-64
2022/03/06 08:27:21;;;;;;;25.23;6.95;;;;;;;1.95;81.33;101587.16;5084127;28;20027;-63
2022/03/06 08:29:47;;;;;;;12.05;6.50;;;;;;;2.45;81.58;101588.47;5083817;28;20031;-63
2022/03/06 08:32:12;;;;;;;20.33;7.43;;;;;;;3.13;80.77;101598.19;5084294;28;20506;-63
2022/03/06 08:34:38;;;;;;;15.95;7.53;;;;;;;3.32;79.47;101588.69;5085800;28;20107;-63
2022/03/06 08:37:04;;;;;;;12.35;6.15;;;;;;;3.89;78.94;101579.78;5088311;28;20135;-63
2022/03/06 08:39:29;;;;;;;15.70;5.68;;;;;;;4.38;77.66;101577.28;5087934;28;20475;-63
2022/03/06 08:41:55;;;;;;;10.20;5.50;;;;;;;4.52;77.26;101575.19;5088065;28;20028;-63
2022/03/06 08:44:20;;;;;;;8.98;4.72;;;;;;;5.01;77.75;101580.31;5087265;28;20052;-64
2022/03/06 08:46:45;;;;;;;12.93;5.47;;;;;;;5.78;75.91;101583.56;5088255;28;20075;-63
2022/03/06 08:49:11;;;;;;;13.02;5.72;;;;;;;6.63;74.11;101576.53;5087269;28;20028;-64
2022/03/06 08:51:36;;;;;;;13.05;5.20;;;;;;;7.58;71.47;101580.59;5088008;28;20049;-64
2022/03/06 08:54:02;;;;;;;7.65;4.40;;;;;;;8.28;68.70;101576.91;5088058;28;20024;-64
2022/03/06 08:56:28;;;;;;;11.25;4.80;;;;;;;8.83;67.38;101575.38;5088084;28;20044;-64
2022/03/06 08:58:54;;;;;;;7.72;4.88;;;;;;;9.60;65.25;101587.78;5087499;28;20023;-64
2022/03/06 09:01:19;;;;;;;5.20;3.30;;;;;;;10.22;62.12;101581.69;5088150;28;20025;-64
2022/03/06 09:03:45;;;;;;;6.60;3.47;;;;;;;10.44;60.04;101576.75;5087737;28;20024;-64
2022/03/06 09:06:10;;;;;;;4.55;3.33;;;;;;;10.65;60.82;101596.91;5088140;28;20032;-65
2022/03/06 09:08:36;;;;;;;7.50;3.55;;;;;;;10.87;60.45;101585.03;5087774;28;20038;-64
2022/03/06 09:11:03;;;;;;;9.43;4.15;;;;;;;11.05;60.34;101577.38;5087858;28;20073;-65
2022/03/06 09:13:28;;;;;;;8.32;3.90;;;;;;;11.42;58.89;101587.19;5087262;28;20046;-65
2022/03/06 09:15:54;;;;;;;6.68;4.03;;;;;;;11.31;58.51;101593.16;5087810;28;20016;-64
2022/03/06 09:18:19;;;;;;;7.05;3.85;;;;;;;11.31;56.43;101598.34;5087152;28;20021;-65
2022/03/06 09:20:44;;;;;;;5.03;3.03;;;;;;;11.46;56.83;101600.22;5087900;28;20017;-64
2022/03/06 09:23:10;;;;;;;4.43;2.95;;;;;;;11.48;54.80;101595.91;5087429;28;20031;-64
2022/03/06 09:25:35;;;;;;;7.03;4.10;;;;;;;11.49;55.25;101601.97;5087879;28;20032;-64
2022/03/06 09:28:02;;;;;;;5.80;3.13;;;;;;;11.19;54.39;101604.34;5087745;28;20035;-64
2022/03/06 09:30:28;;;;;;;5.97;3.45;;;;;;;10.93;54.67;101594.59;5087623;28;20029;-64
2022/03/06 09:32:54;;;;;;;5.45;3.17;;;;;;;10.74;52.21;101604.81;5087396;28;20034;-64
2022/03/06 09:35:19;;;;;;;6.15;3.00;;;;;;;10.51;54.46;101594.19;5087647;28;20080;-64
2022/03/06 09:37:45;;;;;;;5.20;2.83;;;;;;;10.60;53.67;101594.28;5087793;28;20088;-64
2022/03/06 09:40:11;;;;;;;5.70;3.08;;;;;;;10.27;52.58;101590.41;5087163;28;20032;-64
2022/03/06 09:42:37;;;;;;;3.85;2.40;;;;;;;10.26;53.19;101591.25;5087384;28;20055;-64
2022/03/06 09:45:05;;;;;;;3.10;2.17;;;;;;;10.27;52.57;101590.41;5086368;28;20396;-64
2022/03/06 09:47:30;;;;;;;4.63;2.47;;;;;;;10.16;52.62;101588.53;5087575;28;20031;-64
2022/03/06 09:49:56;;;;;;;5.03;2.65;;;;;;;10.19;52.52;101584.25;5086958;28;20032;-65
2022/03/06 09:52:21;;;;;;;4.35;2.10;;;;;;;10.17;51.62;101582.50;5086486;28;20032;-64
2022/03/06 09:54:47;;;;;;;3.92;2.20;;;;;;;10.09;50.81;101586.75;5086991;28;20080;-64
2022/03/06 09:57:18;;;;;;;5.90;2.55;;;;;;;10.02;51.12;101574.53;5087175;28;20032;-64
2022/03/06 09:59:43;;;;;;;3.63;2.40;;;;;;;10.02;50.72;101587.50;5086869;28;20025;-64
2022/03/06 10:02:10;;;;;;;3.53;2.10;;;;;;;10.02;50.56;101584.91;5086936;28;20031;-64
2022/03/06 10:04:35;;;;;;;5.20;2.25;;;;;;;10.02;49.87;101582.31;5086109;28;20535;-64
2022/03/06 10:07:01;;;;;;;5.97;2.03;;;;;;;10.12;48.23;101586.78;5086390;28;20046;-67
2022/03/06 10:09:27;;;;;;;8.15;2.35;;;;;;;10.13;48.76;101587.63;5084772;28;20194;-67
2022/03/06 10:11:54;;;;;;;7.25;2.40;;;;;;;10.31;47.68;101584.41;5086362;28;20024;-65
2022/03/06 10:14:41;;;;;;;6.30;2.38;;;;;;;10.59;48.33;101596.84;5086320;28;20020;-65
2022/03/06 10:17:23;;;;;;;5.38;2.60;;;;;;;11.17;46.52;101594.81;5086344;28;20224;-64
2022/03/06 10:19:53;;;;;;;;;;;;;;;11.49;44.45;101596.75;5086132;28;20052;-64
2022/03/06 10:22:20;;;;;;;4.32;2.33;;;;;;;11.84;43.10;101593.50;5086239;28;19919;-65
2022/03/06 10:24:50;;;;;;;5.13;2.40;;;;;;;11.93;42.10;101586.63;5085901;28;20033;-65
2022/03/06 10:27:16;;;;;;;7.75;2.50;;;;;;;11.48;40.59;101593.31;5086364;28;20024;-64
2022/03/06 10:29:43;;;;;;;6.35;2.58;;;;;;;10.89;41.84;101591.06;5085969;28;20028;-65
2022/03/06 10:32:08;;;;;;;4.57;2.55;;;;;;;10.38;42.64;101583.59;5086196;28;20051;-65
2022/03/06 10:34:36;;;;;;;4.03;1.80;;;;;;;10.04;42.93;101585.81;5085620;28;20135;-65
2022/03/06 10:37:02;;;;;;;5.15;2.85;;;;;;;9.69;42.92;101601.75;5085934;28;20028;-64
2022/03/06 10:39:29;;;;;;;7.60;2.60;;;;;;;9.41;43.88;101597.88;5085690;28;20214;-64
2022/03/06 10:41:56;;;;;;;4.05;1.88;;;;;;;9.79;43.73;101593.25;5085643;28;20115;-63
2022/03/06 10:44:41;;;;;;;4.22;2.40;;;;;;;10.28;42.45;101587.84;5085056;28;20275;-64
2022/03/06 10:47:06;;;;;;;5.63;1.42;;;;;;;10.69;39.32;101588.28;5085295;28;20044;-63
2022/03/06 10:49:32;;;;;;;4.10;1.30;;;;;;;10.69;37.88;101587.44;5085259;28;20024;-64
2022/03/06 10:52:12;;;;;;;2.50;1.10;;;;;;;10.80;37.30;101592.75;5085581;28;20042;-64
2022/03/06 10:54:54;;;;;;;2.25;0.90;;;;;;;11.12;37.41;101597.34;5085251;28;20021;-65
2022/03/06 10:57:21;;;;;;;2.17;0.95;;;;;;;11.52;35.72;101597.66;5085464;28;20020;-65
2022/03/06 10:59:52;;;;;;;3.28;1.05;;;;;;;11.91;35.40;101589.22;5085364;28;20024;-64
2022/03/06 11:02:18;;;;;;;4.40;1.10;;;;;;;12.42;35.39;101592.91;5085264;28;20028;-65
2022/03/06 11:04:53;;;;;;;5.75;1.20;;;;;;;13.07;35.17;101586.91;5085209;28;20031;-65
2022/03/06 11:07:19;;;;;;;3.38;1.05;;;;;;;13.77;35.02;101584.25;5085468;28;20035;-65
2022/03/06 11:09:49;;;;;;;1.52;1.00;;;;;;;14.52;34.10;101585.69;5085394;28;20034;-65
2022/03/06 11:12:14;;;;;;;2.25;1.20;;;;;;;15.19;33.76;101588.69;5084964;28;20080;-65
2022/03/06 11:14:40;;;;;;;6.93;1.40;;;;;;;15.67;32.66;101583.91;5085150;28;20036;-64